Terminal Aerodrome Forecast
Issued by NWS

Home | Current Version | Previous Version | Graphics & Text | Print | Product List | Glossary On
Versions: 1 2 3 4 5 6 7 8 9 10 11 12 13 14 15 16 17 18 19 20 21 22
750
FTUS43 KABR 191129
TAFPIR
TAF
KPIR 191129Z 1912/2012 14014KT P6SM SCT090 BKN150 WS020/19040KT
     FM191500 16016G24KT P6SM SCT120
     FM192000 21015G23KT P6SM BKN050 BKN150
      TEMPO 1922/1924 TSRA BKN030CB OVC080
     FM200000 28017G24KT P6SM VCSH SCT090 BKN200
     FM200500 30015G23KT P6SM BKN110
     FM200700 29010KT P6SM SCT150=

USA.gov is the U.S. government's official web portal to all federal, state and local government web resources and services.